INFORMACIÓN METAR y TAF
METAR FOR LEPA
ADDS - METARS form results

(1034 UTC 10 August 2020)
Data provider http://aviationweather.gov/metar/data/
 
METAR text: LEPA 101030Z 24010KT CAVOK 31/22 Q1014 NOSIG
Conditions at: LEPA (PALMA DE MALLORC, ES) observed 1030 UTC 10 August 2020
Temperature: 31.0°C (88°F)
Dewpoint: 22.0°C (72°F) [RH = 59%]
Pressure (altimeter): 29.94 inches Hg (1014.0 mb)
Winds: from the WSW (240 degrees) at 12 MPH (10 knots; 5.1 m/s)
Visibility: 6 or more miles (10+ km)
Ceiling: ceiling and visibility are OK
Clouds: unknown
Weather: no significant weather observed at this time

METAR text: LEPA 101000Z 24007KT 210V270 CAVOK 31/21 Q1014 NOSIG
Conditions at: LEPA (PALMA DE MALLORC, ES) observed 1000 UTC 10 August 2020
Temperature: 31.0°C (88°F)
Dewpoint: 21.0°C (70°F) [RH = 55%]
Pressure (altimeter): 29.94 inches Hg (1014.0 mb)
Winds: from the WSW (240 degrees) at 8 MPH (7 knots; 3.6 m/s)
Visibility: 6 or more miles (10+ km)
Ceiling: ceiling and visibility are OK
Clouds: unknown
Weather: no significant weather observed at this time

Forecast for: LEPA (PALMA DE MALLORC, ES)
Text: TAF LEPA 100500Z 1006/1106 VRB04KT CAVOK TX33/1013Z TN21/1105Z
Forecast period: 0600 to 1000 UTC 10 August 2020
Forecast type: FROM: standard forecast or significant change
Winds: variable direction winds at 5 MPH (4 knots; 2.1 m/s)
Visibility: 6 or more miles (10+ km)
Ceiling: unknown
Clouds: missing
Weather: no significant weather forecast for this period
Text: BECMG 1010/1012 22010KT
Forecast period: 1000 to 1900 UTC 10 August 2020
Forecast type: BECOMING: Conditions expected to become as follows by 1200 UTC 10 August 2020
Winds: from the SW (220 degrees) at 12 MPH (10 knots; 5.1 m/s)
Visibility: 6 or more miles (10+ km)
Ceiling: unknown
Clouds: missing
Weather: no significant weather forecast for this period
Text: BECMG 1019/1021 03005KT
Forecast period: 1900 UTC 10 August 2020 to 0600 UTC 11 August 2020
Forecast type: BECOMING: Conditions expected to become as follows by 2100 UTC 10 August 2020
Winds: from the NNE (30 degrees) at 6 MPH (5 knots; 2.6 m/s)
Visibility: 6 or more miles (10+ km)
Ceiling: unknown
Clouds: missing
Weather: no significant weather forecast for this period

MAPA DE AEROPUERTO

INFORMACIÓN DE PISTA
Pista 06L Longitud 10728 ft Ancho 148 ft
Elevación 15 ft Umbral desplazado 0 ft Rumbo de pista 59
Pista 24R Longitud 10728 ft Ancho 148 ft
Elevación 8 ft Umbral desplazado 230 ft Rumbo de pista 239
Pista 06R Longitud 9842 ft Ancho 148 ft
Elevación 24 ft Umbral desplazado 1345 ft Rumbo de pista 59
Pista 24L Longitud 9842 ft Ancho 148 ft
Elevación 8 ft Umbral desplazado 0 ft Rumbo de pista 239

FRECUANCIAS DEL AEROPUERTO
Tipo APP Nombre APP Frecuencia 118.95 MHZ
Tipo ATIS Nombre ATIS Frecuencia 119.25 MHZ
Tipo CLD Nombre CLNC DEL Frecuencia 121.6 MHZ
Tipo GND Nombre GND Frecuencia 121.7 MHZ
Tipo OPS Nombre OPS Frecuencia 130.25 MHZ
Tipo TWR Nombre TWR Frecuencia 118.3 MHZ

RADIO AYUDAS DEL AEROPUERTO